createdAt,value
2019-02-09T00:05:15.220Z,1.80
2019-02-09T00:10:44.621Z,1.70
2019-02-09T00:16:13.995Z,1.70
2019-02-09T00:21:43.468Z,1.70
2019-02-09T00:27:12.946Z,1.70
2019-02-09T00:32:42.432Z,1.70
2019-02-09T00:38:12.038Z,1.70
2019-02-09T00:43:41.396Z,1.60
2019-02-09T00:49:11.020Z,1.60
2019-02-09T00:54:40.431Z,1.60
2019-02-09T01:00:25.161Z,1.70
2019-02-09T01:05:55.196Z,1.70
2019-02-09T01:11:24.915Z,1.60
2019-02-09T01:16:56.197Z,1.70
2019-02-09T01:22:26.642Z,1.70
2019-02-09T01:27:58.353Z,1.70
2019-02-09T01:33:28.943Z,1.70
2019-02-09T01:39:00.983Z,1.60
2019-02-09T01:44:30.767Z,1.50
2019-02-09T01:50:00.208Z,1.50
2019-02-09T01:55:29.878Z,1.40
2019-02-09T02:00:59.648Z,1.30
2019-02-09T02:06:29.376Z,1.30
2019-02-09T02:11:59.198Z,1.10
2019-02-09T02:17:29.120Z,1.10
2019-02-09T02:23:00.735Z,1.00
2019-02-09T02:28:30.498Z,0.90
2019-02-09T02:33:59.923Z,0.90
2019-02-09T02:39:29.600Z,0.80
2019-02-09T02:44:59.456Z,0.70
2019-02-09T02:50:29.362Z,0.70
2019-02-09T02:55:58.909Z,0.70
2019-02-09T03:01:28.696Z,0.60
2019-02-09T03:06:58.342Z,0.60
2019-02-09T03:12:28.131Z,0.70
2019-02-09T03:17:57.860Z,1.00
2019-02-09T03:23:27.735Z,1.10
2019-02-09T03:28:57.571Z,1.20
2019-02-09T03:34:27.284Z,1.30
2019-02-09T03:39:57.031Z,1.40
2019-02-09T03:45:28.984Z,1.40
2019-02-09T03:50:58.737Z,1.50
2019-02-09T03:56:29.597Z,1.50
2019-02-09T04:01:59.300Z,1.50
2019-02-09T04:07:29.232Z,1.50
2019-02-09T04:13:00.269Z,1.50
2019-02-09T04:18:29.837Z,1.60
2019-02-09T04:23:59.886Z,1.60
2019-02-09T04:29:29.500Z,1.70
2019-02-09T04:34:59.000Z,1.70
2019-02-09T04:40:33.124Z,1.80
2019-02-09T04:46:03.006Z,1.80
2019-02-09T04:51:32.460Z,1.90
2019-02-09T04:57:01.921Z,2.00
2019-02-09T05:02:31.666Z,2.20
2019-02-09T05:08:01.146Z,2.30
2019-02-09T05:13:31.689Z,2.50
2019-02-09T05:19:01.422Z,2.60
2019-02-09T05:24:30.827Z,2.70
2019-02-09T05:30:00.315Z,2.80
2019-02-09T05:35:30.115Z,3.00
2019-02-09T05:41:01.116Z,3.10
2019-02-09T05:46:30.716Z,3.30
2019-02-09T05:52:00.142Z,3.70
2019-02-09T05:57:29.994Z,3.90
2019-02-09T06:02:59.938Z,4.00
2019-02-09T06:08:29.557Z,4.10
2019-02-09T06:14:00.356Z,4.30
2019-02-09T06:19:30.013Z,4.40
2019-02-09T06:24:59.861Z,4.60
2019-02-09T06:30:31.687Z,4.70
2019-02-09T06:36:01.169Z,4.80
2019-02-09T06:41:30.812Z,4.90
2019-02-09T06:47:00.386Z,5.00
2019-02-09T06:52:29.833Z,5.20
2019-02-09T06:57:59.447Z,5.40
2019-02-09T07:03:28.977Z,5.40
2019-02-09T07:08:58.489Z,5.50
2019-02-09T07:14:28.010Z,5.60
2019-02-09T07:19:57.547Z,5.70
2019-02-09T07:25:27.797Z,6.00
2019-02-09T07:30:57.537Z,6.20
2019-02-09T07:36:27.500Z,6.30
2019-02-09T07:41:57.304Z,6.40
2019-02-09T07:47:27.127Z,6.60
2019-02-09T07:52:56.964Z,6.70
2019-02-09T07:58:26.858Z,6.90
2019-02-09T08:03:56.823Z,7.00
2019-02-09T08:09:26.573Z,7.10
2019-02-09T08:14:56.557Z,7.20
2019-02-09T08:20:30.365Z,7.10
2019-02-09T08:25:59.933Z,7.00
2019-02-09T08:31:29.875Z,7.10
2019-02-09T08:36:59.367Z,7.20
2019-02-09T08:42:41.181Z,7.60
2019-02-09T08:48:10.834Z,7.70
2019-02-09T08:53:40.309Z,7.60
2019-02-09T08:59:09.638Z,7.60
2019-02-09T09:04:38.971Z,7.60
2019-02-09T09:10:12.863Z,7.60
2019-02-09T09:15:52.792Z,7.60
2019-02-09T09:21:23.426Z,7.80
2019-02-09T09:26:57.621Z,7.90
2019-02-09T09:32:28.728Z,8.20
2019-02-09T09:38:04.099Z,8.30
2019-02-09T09:43:35.602Z,8.20
2019-02-09T09:49:05.286Z,8.10
2019-02-09T09:54:34.730Z,8.10
2019-02-09T10:00:07.594Z,8.20
2019-02-09T10:05:37.256Z,8.30
2019-02-09T10:11:06.877Z,8.50
2019-02-09T10:16:37.087Z,8.40
2019-02-09T10:22:06.915Z,8.60
2019-02-09T10:27:36.390Z,8.80
2019-02-09T10:33:05.992Z,9.00
2019-02-09T10:38:35.819Z,9.10
2019-02-09T10:44:06.065Z,9.20
2019-02-09T10:49:35.491Z,9.30
2019-02-09T10:55:08.479Z,9.30
2019-02-09T11:00:48.129Z,9.40
2019-02-09T11:06:17.457Z,9.50
2019-02-09T11:11:47.067Z,9.70
2019-02-09T11:17:16.419Z,9.80
2019-02-09T11:22:46.281Z,9.90
2019-02-09T11:28:15.782Z,9.90
2019-02-09T11:33:45.209Z,10.00
2019-02-09T11:39:14.743Z,10.00
2019-02-09T11:44:46.731Z,10.10
2019-02-09T11:50:17.811Z,10.00
2019-02-09T11:55:48.637Z,9.80
2019-02-09T12:01:18.011Z,9.70
2019-02-09T12:06:48.108Z,9.70
2019-02-09T12:12:18.039Z,9.90
2019-02-09T12:17:47.377Z,9.90
2019-02-09T12:23:16.837Z,9.90
2019-02-09T12:28:46.217Z,9.90
2019-02-09T12:34:15.531Z,9.80
2019-02-09T12:39:44.974Z,9.90
2019-02-09T12:45:20.892Z,10.00
2019-02-09T12:50:50.740Z,10.00
2019-02-09T12:56:20.299Z,9.90
2019-02-09T13:01:50.097Z,10.00
2019-02-09T13:07:19.570Z,10.10
2019-02-09T13:12:49.199Z,9.90
2019-02-09T13:18:19.456Z,9.70
2019-02-09T13:23:48.819Z,9.60
2019-02-09T13:29:18.235Z,9.60
2019-02-09T13:34:47.872Z,9.50
2019-02-09T13:40:24.331Z,9.70
2019-02-09T13:45:54.276Z,9.80
2019-02-09T13:51:24.036Z,9.60
2019-02-09T13:56:53.940Z,9.80
2019-02-09T14:02:23.682Z,10.10
2019-02-09T14:07:53.606Z,10.30
2019-02-09T14:13:24.462Z,10.20
2019-02-09T14:18:54.242Z,10.00
2019-02-09T14:24:26.897Z,9.90
2019-02-09T14:29:56.616Z,9.60
2019-02-09T14:35:26.794Z,9.40
2019-02-09T14:40:57.736Z,9.20
2019-02-09T14:46:27.429Z,9.20
2019-02-09T14:51:57.279Z,9.10
2019-02-09T14:57:27.029Z,9.00
2019-02-09T15:02:57.044Z,9.00
2019-02-09T15:08:26.972Z,8.90
2019-02-09T15:13:56.843Z,8.80
2019-02-09T15:19:26.919Z,8.70
2019-02-09T15:24:56.640Z,8.70
2019-02-09T15:30:31.336Z,8.60
2019-02-09T15:36:07.934Z,8.60
2019-02-09T15:41:37.481Z,8.50
2019-02-09T15:47:07.708Z,8.50
2019-02-09T15:52:37.232Z,8.40
2019-02-09T15:58:06.912Z,8.30
2019-02-09T16:03:36.513Z,8.30
2019-02-09T16:09:08.369Z,8.20
2019-02-09T16:14:37.876Z,8.20
2019-02-09T16:20:12.027Z,8.10
2019-02-09T16:25:41.432Z,8.10
2019-02-09T16:31:10.913Z,8.10
2019-02-09T16:36:40.319Z,8.10
2019-02-09T16:42:09.894Z,8.10
2019-02-09T16:47:39.437Z,8.00
2019-02-09T16:53:09.121Z,8.00
2019-02-09T16:58:38.492Z,7.90
2019-02-09T17:04:08.328Z,7.80
2019-02-09T17:09:37.978Z,7.80
2019-02-09T17:15:15.334Z,7.70
2019-02-09T17:20:44.789Z,7.60
2019-02-09T17:26:15.117Z,7.60
2019-02-09T17:31:45.289Z,7.50
2019-02-09T17:37:14.787Z,7.40
2019-02-09T17:42:44.363Z,7.30
2019-02-09T17:48:13.840Z,7.30
2019-02-09T17:53:43.150Z,7.30
2019-02-09T17:59:12.497Z,7.20
2019-02-09T18:04:48.411Z,7.20
2019-02-09T18:10:16.711Z,7.20
2019-02-09T18:15:46.119Z,7.20
2019-02-09T18:21:15.627Z,7.20
2019-02-09T18:26:45.040Z,7.20
2019-02-09T18:32:14.662Z,7.20
2019-02-09T18:37:44.211Z,7.20
2019-02-09T18:43:13.692Z,7.30
2019-02-09T18:48:43.384Z,7.20
2019-02-09T18:54:12.975Z,7.30
2019-02-09T18:59:42.301Z,7.30
2019-02-09T19:05:14.116Z,7.30
2019-02-09T19:10:43.556Z,7.30
2019-02-09T19:16:13.976Z,7.30
2019-02-09T19:21:44.015Z,7.30
2019-02-09T19:27:13.486Z,7.30
2019-02-09T19:32:51.528Z,7.30
2019-02-09T19:38:21.242Z,7.40
2019-02-09T19:43:51.373Z,7.30
2019-02-09T19:49:22.020Z,7.30
2019-02-09T19:54:51.768Z,7.20
2019-02-09T20:00:27.888Z,7.20
2019-02-09T20:05:57.437Z,7.20
2019-02-09T20:11:27.354Z,7.20
2019-02-09T20:16:56.760Z,7.30
2019-02-09T20:22:26.381Z,7.20
2019-02-09T20:27:57.139Z,7.30
2019-02-09T20:33:26.622Z,7.30
2019-02-09T20:39:04.318Z,7.30
2019-02-09T20:44:28.066Z,7.30
2019-02-09T20:50:00.186Z,7.30
2019-02-09T20:55:30.098Z,7.40
2019-02-09T21:00:59.855Z,7.40
2019-02-09T21:06:29.546Z,7.40
2019-02-09T21:11:59.064Z,7.30
2019-02-09T21:17:28.568Z,7.30
2019-02-09T21:22:58.098Z,7.30
2019-02-09T21:28:27.636Z,7.30
2019-02-09T21:33:57.833Z,7.30
2019-02-09T21:39:33.802Z,7.20
2019-02-09T21:44:58.699Z,7.20
2019-02-09T21:50:40.580Z,7.20
2019-02-09T21:56:12.653Z,7.20
2019-02-09T22:01:42.224Z,7.20
2019-02-09T22:07:11.849Z,7.20
2019-02-09T22:12:43.534Z,7.20
2019-02-09T22:18:15.738Z,7.20
2019-02-09T22:23:47.691Z,7.20
2019-02-09T22:29:19.853Z,7.20
2019-02-09T22:34:51.600Z,7.20
2019-02-09T22:40:25.257Z,7.20
2019-02-09T22:45:55.055Z,7.20
2019-02-09T22:51:25.898Z,7.20
2019-02-09T22:56:55.478Z,7.10
2019-02-09T23:02:24.975Z,7.10
2019-02-09T23:07:54.366Z,7.10
2019-02-09T23:13:23.907Z,7.00
2019-02-09T23:18:53.292Z,6.80
2019-02-09T23:24:23.586Z,6.70
2019-02-09T23:29:53.379Z,6.50
2019-02-09T23:35:23.040Z,6.30
2019-02-09T23:40:52.465Z,6.20
2019-02-09T23:46:21.870Z,6.10
2019-02-09T23:51:51.240Z,6.00
2019-02-09T23:57:20.556Z,5.90
